Strona główna
METAR-TAF:

METAR-TAF

Lotnisko :

Schenectady County Airport

Schenectady, Nowy Jork, Stany Zjednoczone

Szerokość geograficzna: 42-51N, Długość geograficzna: 073-56W, wysokość: 115 m

Aktualna obserwacja pogody

Raport powstał 16 minut temu, godzina 21:57 UTC
Wiatr 6 kt od zachodnio-północny zachód
Temperatura 15°C
Wilgotność 59%
Ciśnienie 1015 hPa
Widzialność: 16.1 km
Zachmurzenie całkowite na wysokości 4300 ft

METAR: KSCH 042157Z 29006KT 10SM OVC043 15/07 A2996

czas: 18:13 (22:13 UTC)


TAF: brakujący

Obserwacja i prognoza pogody dla ponad 4000 lotnisk (raport METAR i TAF).

Dostępne stacje oznaczono żółtymi i czerwonymi punktami na mapie.

Najedź kursorem aby zobaczyć nazwę stacji.

Kliknij aby zobaczyć obserwacje i prognozy pogody.

Aby zmienić mapę: kliknij na zielony przycisk z czarnym krzyżykiem, aby powiększyć; na zielony przycisk z myślnikiem, aby pomniejszyć; na zielone strzałki, aby przejść do map sąsiednich.


METAR-TAF: